Time;durP1;ratioP1;P1;durP2;ratioP2;P2;SDS_P1;SDS_P2;PMS_P1;PMS_P2;Temp;Humidity;BMP_temperature;BMP_pressure;BME280_temperature;BME280_humidity;BME280_pressure;Samples;Min_cycle;Max_cycle;Signal;HPM_P1;HPM_P2
2023/04/14 00:00:00;;;;;;;18.55;9.50;;;;;;;22.72;43.94;100210.88;2072809;28;20069;-60
2023/04/14 00:01:06;;;;;;;16.38;9.43;;;;;;;22.73;43.81;100214.41;2072794;28;20800;-60
2023/04/14 00:02:08;;;;;;;14.15;8.57;;;;;;;22.72;43.94;100210.88;2081318;28;20120;-60
2023/04/14 00:03:10;;;;;;;18.60;9.48;;;;;;;22.73;44.01;100217.16;2080951;28;20038;-60
2023/04/14 00:04:15;;;;;;;17.83;8.77;;;;;;;22.72;43.86;100212.84;2072268;28;20058;-60
2023/04/14 00:05:20;;;;;;;13.40;8.35;;;;;;;22.72;43.94;100205.41;2081860;28;20038;-60
2023/04/14 00:06:26;;;;;;;17.00;8.73;;;;;;;22.72;43.96;100205.41;2088034;28;20041;-60
2023/04/14 00:07:30;;;;;;;15.95;8.82;;;;;;;22.72;43.88;100221.84;2081322;28;20048;-60
2023/04/14 00:08:32;;;;;;;14.88;8.35;;;;;;;22.72;43.90;100205.41;2080836;28;20034;-60
2023/04/14 00:09:36;;;;;;;17.58;8.65;;;;;;;22.71;43.87;100209.31;2071521;28;20038;-60
2023/04/14 00:10:40;;;;;;;16.40;8.88;;;;;;;22.72;43.86;100205.41;2072557;28;20113;-60
2023/04/14 00:11:43;;;;;;;16.67;8.65;;;;;;;22.72;43.75;100208.16;2079801;28;20088;-60
2023/04/14 00:12:45;;;;;;;15.68;8.85;;;;;;;22.72;43.89;100208.16;2087418;28;20021;-60
2023/04/14 00:13:46;;;;;;;25.60;9.35;;;;;;;22.72;43.90;100213.63;2089659;28;20061;-59
2023/04/14 00:14:49;;;;;;;18.23;9.38;;;;;;;22.72;43.89;100210.88;2089195;28;20037;-61
2023/04/14 00:15:54;;;;;;;16.63;8.20;;;;;;;22.72;43.92;100193.66;2088876;28;20041;-59
2023/04/14 00:16:55;;;;;;;19.85;9.15;;;;;;;22.73;43.93;100200.72;2052784;28;20039;-59
2023/04/14 00:18:00;;;;;;;14.68;8.30;;;;;;;22.73;43.96;100201.53;2073359;28;20153;-61
2023/04/14 00:19:01;;;;;;;18.50;8.63;;;;;;;22.71;43.97;100198.34;2088809;28;20029;-61
2023/04/14 00:20:05;;;;;;;18.35;9.18;;;;;;;22.73;43.87;100200.72;2080873;28;20078;-61
2023/04/14 00:21:07;;;;;;;16.92;9.05;;;;;;;22.72;43.85;100188.97;2080569;28;20924;-61
2023/04/14 00:22:12;;;;;;;17.73;9.30;;;;;;;22.72;43.95;100194.44;2080984;28;20830;-63
2023/04/14 00:23:19;;;;;;;18.33;9.38;;;;;;;22.72;43.83;100197.19;2080846;28;20871;-61
2023/04/14 00:24:23;;;;;;;15.35;8.30;;;;;;;22.73;43.91;100198.78;2073675;28;20042;-61
2023/04/14 00:25:25;;;;;;;16.52;8.80;;;;;;;22.72;43.91;100199.94;2046258;28;20039;-60
2023/04/14 00:26:30;;;;;;;16.15;9.18;;;;;;;22.72;43.80;100196.41;2073375;28;20036;-61
2023/04/14 00:27:35;;;;;;;19.40;8.80;;;;;;;22.72;43.91;100197.19;2054732;28;20766;-60
2023/04/14 00:28:40;;;;;;;20.27;8.82;;;;;;;22.72;44.02;100202.66;2066722;28;20146;-60
2023/04/14 00:29:43;;;;;;;14.48;8.50;;;;;;;22.73;43.99;100207.00;2082621;28;20137;-60
2023/04/14 00:30:47;;;;;;;14.45;8.82;;;;;;;22.72;43.98;100205.41;2090500;28;20021;-60
2023/04/14 00:31:49;;;;;;;14.98;8.40;;;;;;;22.72;43.96;100205.41;2081484;28;20041;-61
2023/04/14 00:32:54;;;;;;;20.95;9.00;;;;;;;22.73;43.97;100200.72;2066518;28;20039;-61
2023/04/14 00:33:56;;;;;;;18.40;8.85;;;;;;;22.72;43.99;100199.94;2073942;28;20951;-61
2023/04/14 00:34:59;;;;;;;18.58;8.55;;;;;;;22.73;43.95;100201.53;2089957;28;20026;-61
2023/04/14 00:36:00;;;;;;;15.23;8.77;;;;;;;22.73;43.99;100204.28;2081620;28;20104;-60
2023/04/14 00:37:05;;;;;;;16.58;8.65;;;;;;;22.73;44.01;100198.78;2069395;28;20043;-60
2023/04/14 00:38:09;;;;;;;15.50;8.27;;;;;;;22.73;44.01;100207.00;2057843;28;20915;-60
2023/04/14 00:39:11;;;;;;;15.93;9.15;;;;;;;22.74;44.04;100205.06;2067549;28;20027;-60
2023/04/14 00:40:16;;;;;;;15.50;8.55;;;;;;;22.73;44.09;100212.50;2073634;28;20932;-60
2023/04/14 00:41:18;;;;;;;19.42;8.82;;;;;;;22.73;43.96;100206.19;2058285;28;20081;-60
2023/04/14 00:42:21;;;;;;;15.45;9.18;;;;;;;22.72;44.02;100205.41;2065025;28;20086;-61
2023/04/14 00:43:25;;;;;;;15.10;8.95;;;;;;;22.73;44.02;100207.00;2080906;28;21384;-61
2023/04/14 00:44:29;;;;;;;15.73;8.65;;;;;;;22.73;44.10;100198.78;2080646;28;20832;-61
2023/04/14 00:45:35;;;;;;;18.80;9.35;;;;;;;22.73;43.89;100201.53;2072759;28;20041;-60
2023/04/14 00:46:40;;;;;;;17.65;8.75;;;;;;;22.73;43.94;100204.28;2074435;28;20037;-60
2023/04/14 00:47:49;;;;;;;16.60;9.13;;;;;;;22.72;43.97;100199.94;2062175;28;20788;-60
2023/04/14 00:48:53;;;;;;;16.92;9.10;;;;;;;22.73;43.83;100200.72;2066470;28;20091;-60
2023/04/14 00:49:59;;;;;;;15.55;8.23;;;;;;;22.73;43.96;100201.53;2067396;28;20743;-60
2023/04/14 00:51:01;;;;;;;17.23;9.05;;;;;;;22.72;43.80;100199.94;2074211;28;20034;-61
2023/04/14 00:52:04;;;;;;;18.77;8.90;;;;;;;22.73;44.04;100204.28;2076754;28;20757;-60
2023/04/14 00:53:12;;;;;;;19.02;9.20;;;;;;;22.73;43.91;100206.19;2073738;28;20792;-60
2023/04/14 00:54:21;;;;;;;19.83;9.07;;;;;;;22.73;43.97;100203.44;2075589;28;20141;-60
2023/04/14 00:55:29;;;;;;;17.52;8.90;;;;;;;22.71;43.84;100206.56;2083491;28;20034;-60
2023/04/14 00:56:32;;;;;;;15.77;9.25;;;;;;;22.73;43.86;100206.19;2065189;28;20052;-60
2023/04/14 00:57:37;;;;;;;18.73;9.38;;;;;;;22.72;43.95;100207.38;2065260;28;20141;-60
2023/04/14 00:58:41;;;;;;;20.20;10.05;;;;;;;22.71;43.99;100201.09;2075585;28;20149;-60
2023/04/14 00:59:43;;;;;;;16.38;9.00;;;;;;;22.72;43.97;100210.88;2073152;28;20112;-60
2023/04/14 01:00:52;;;;;;;16.65;9.50;;;;;;;22.71;43.95;100212.06;2066095;28;20038;-60
2023/04/14 01:01:55;;;;;;;20.25;8.57;;;;;;;22.72;43.88;100210.09;2091516;28;20842;-61
2023/04/14 01:03:00;;;;;;;18.95;10.00;;;;;;;22.72;43.93;100213.63;2089742;28;20091;-60
2023/04/14 01:04:02;;;;;;;19.63;9.80;;;;;;;22.72;43.93;100210.88;2081863;28;20046;-60
2023/04/14 01:05:07;;;;;;;16.50;9.18;;;;;;;22.72;44.02;100210.09;2073516;28;20128;-60
2023/04/14 01:06:11;;;;;;;18.38;10.10;;;;;;;22.72;43.89;100213.63;2082289;28;20832;-60
2023/04/14 01:07:19;;;;;;;15.85;8.60;;;;;;;22.72;43.81;100210.88;2074169;28;20110;-60
2023/04/14 01:08:24;;;;;;;18.20;9.43;;;;;;;22.72;43.89;100221.84;2067803;28;20778;-61
2023/04/14 01:09:26;;;;;;;15.32;9.15;;;;;;;22.71;43.90;100217.53;2065994;28;20043;-61
2023/04/14 01:10:35;;;;;;;18.80;10.13;;;;;;;22.72;43.92;100226.53;2058192;28;20054;-61
2023/04/14 01:11:50;;;;;;;19.35;10.13;;;;;;;22.71;43.98;100220.28;2067807;28;20051;-61
2023/04/14 01:13:07;;;;;;;16.45;9.40;;;;;;;22.71;43.92;100220.28;2085796;28;20080;-61
2023/04/14 01:14:28;;;;;;;15.70;9.52;;;;;;;22.71;43.95;100222.22;2081968;28;20973;-61
2023/04/14 01:15:35;;;;;;;20.08;10.05;;;;;;;22.70;43.89;100218.72;2078550;28;20034;-59
2023/04/14 01:16:44;;;;;;;19.17;9.77;;;;;;;22.71;43.83;100214.81;2081564;28;20034;-61
2023/04/14 01:17:56;;;;;;;18.65;9.60;;;;;;;22.71;43.89;100223.03;2069537;28;20030;-61
2023/04/14 01:19:03;;;;;;;18.15;9.45;;;;;;;22.71;43.89;100222.22;2082006;28;20857;-61
2023/04/14 01:20:25;;;;;;;17.55;9.68;;;;;;;22.70;43.88;100221.44;2081724;28;20152;-61
2023/04/14 01:21:34;;;;;;;14.98;8.82;;;;;;;22.71;43.83;100230.47;2076116;28;20042;-61
2023/04/14 01:22:43;;;;;;;18.50;9.50;;;;;;;22.71;43.90;100233.19;2082361;28;20147;-61
2023/04/14 01:24:15;;;;;;;16.98;8.82;;;;;;;22.70;43.88;100229.66;2066294;28;20047;-61
2023/04/14 01:25:22;;;;;;;18.92;9.40;;;;;;;22.70;43.97;100232.41;2074119;28;20056;-61
2023/04/14 01:26:46;;;;;;;13.93;8.95;;;;;;;22.69;44.07;100230.81;2082607;28;20823;-61
2023/04/14 01:28:28;;;;;;;19.77;9.52;;;;;;;22.69;43.85;100228.06;2081082;28;20115;-61
2023/04/14 01:29:53;;;;;;;15.68;9.40;;;;;;;22.69;43.95;100228.06;2058908;28;20034;-59
2023/04/14 01:31:22;;;;;;;16.13;9.38;;;;;;;22.71;43.90;100219.50;2075502;28;20041;-61
2023/04/14 01:32:33;;;;;;;15.65;9.55;;;;;;;22.70;43.97;100226.13;2085608;28;20025;-61
2023/04/14 01:33:40;;;;;;;16.98;8.88;;;;;;;22.70;43.93;100228.84;2079784;28;21440;-60
2023/04/14 01:34:59;;;;;;;16.45;9.05;;;;;;;22.71;43.95;100230.47;2089547;28;20072;-61
2023/04/14 01:36:07;;;;;;;15.90;8.88;;;;;;;22.70;43.93;100229.66;2075705;28;20769;-61
2023/04/14 01:37:28;;;;;;;15.82;9.40;;;;;;;22.69;43.96;100228.06;2075424;28;20093;-62
2023/04/14 01:38:35;;;;;;;14.80;8.98;;;;;;;22.69;44.01;100228.06;2083848;28;20056;-60
2023/04/14 01:39:44;;;;;;;15.45;8.57;;;;;;;22.69;44.09;100228.06;2082515;28;20037;-61
2023/04/14 01:40:51;;;;;;;14.77;8.82;;;;;;;22.70;43.97;100237.91;2082382;28;20037;-61
2023/04/14 01:41:58;;;;;;;12.73;8.63;;;;;;;22.69;43.79;100228.06;2082528;28;20883;-60
2023/04/14 01:43:08;;;;;;;14.70;9.10;;;;;;;22.69;43.87;100233.56;2082314;28;20829;-60
2023/04/14 01:44:12;;;;;;;14.75;8.55;;;;;;;22.70;43.97;100232.41;2075082;28;20045;-60
2023/04/14 01:45:22;;;;;;;20.13;8.95;;;;;;;22.71;43.89;100236.72;2073636;28;20071;-60
2023/04/14 01:46:26;;;;;;;16.25;8.38;;;;;;;22.70;43.99;100246.13;2083543;28;20030;-61
2023/04/14 01:47:33;;;;;;;15.77;8.77;;;;;;;22.70;43.88;100237.91;2069784;28;20038;-59
2023/04/14 01:48:37;;;;;;;14.23;8.40;;;;;;;22.69;43.93;100230.81;2083098;28;20220;-59
2023/04/14 01:49:46;;;;;;;20.63;9.00;;;;;;;22.69;43.92;100236.28;2082407;28;20030;-59
2023/04/14 01:50:48;;;;;;;14.85;8.48;;;;;;;22.68;43.88;100235.50;2073856;28;20145;-60
2023/04/14 01:51:55;;;;;;;13.45;8.70;;;;;;;22.67;43.81;100231.19;2065338;28;20043;-60
2023/04/14 01:53:00;;;;;;;13.70;8.13;;;;;;;22.69;44.00;100239.03;2065748;28;20050;-60
2023/04/14 01:54:09;;;;;;;13.48;8.48;;;;;;;22.67;43.81;100235.88;2072633;28;20057;-61
2023/04/14 01:55:12;;;;;;;15.52;8.57;;;;;;;22.68;43.76;100240.19;2081607;28;20120;-60
2023/04/14 01:56:17;;;;;;;14.25;8.88;;;;;;;22.70;43.92;100239.81;2081439;28;20162;-60
2023/04/14 01:57:25;;;;;;;15.05;8.73;;;;;;;22.69;43.85;100236.28;2074841;28;20840;-60
2023/04/14 01:58:28;;;;;;;17.55;8.50;;;;;;;22.69;43.76;100233.56;2074231;28;20072;-60
2023/04/14 01:59:35;;;;;;;17.10;8.93;;;;;;;22.68;43.86;100238.25;2073982;28;20446;-59
2023/04/14 02:00:39;;;;;;;13.60;8.57;;;;;;;22.68;43.74;100237.47;2074177;28;20153;-60
2023/04/14 02:01:42;;;;;;;14.32;8.35;;;;;;;22.68;43.79;100238.25;2074027;28;20065;-60
2023/04/14 02:02:53;;;;;;;12.38;8.50;;;;;;;22.68;43.57;100237.47;2082124;28;20558;-61
2023/04/14 02:04:01;;;;;;;13.85;7.95;;;;;;;22.68;43.84;100226.50;2089599;28;20040;-61
2023/04/14 02:05:07;;;;;;;15.73;8.13;;;;;;;22.68;43.71;100230.03;2081421;28;20050;-60
2023/04/14 02:06:11;;;;;;;12.30;8.27;;;;;;;22.69;43.90;100236.28;2074213;28;21313;-61
2023/04/14 02:07:18;;;;;;;13.90;7.57;;;;;;;22.68;43.77;100232.75;2081884;28;20078;-61
2023/04/14 02:08:26;;;;;;;13.48;8.02;;;;;;;22.68;43.90;100224.53;2082555;28;20160;-64
2023/04/14 02:09:31;;;;;;;13.48;8.05;;;;;;;22.68;43.86;100238.25;2082723;28;20046;-61
2023/04/14 02:10:37;;;;;;;14.85;8.43;;;;;;;22.68;43.79;100232.75;2064604;28;20035;-60
2023/04/14 02:11:39;;;;;;;14.88;8.30;;;;;;;22.69;43.61;100230.81;2066409;28;20049;-60
2023/04/14 02:12:42;;;;;;;14.88;8.25;;;;;;;22.69;43.82;100222.59;2071924;28;20132;-61
2023/04/14 02:13:47;;;;;;;14.82;8.13;;;;;;;22.68;43.81;100231.97;2072303;28;20077;-60
2023/04/14 02:14:53;;;;;;;12.23;7.68;;;;;;;22.67;43.82;100219.44;2073629;28;20041;-60
2023/04/14 02:15:58;;;;;;;13.55;7.75;;;;;;;22.69;43.89;100222.59;2073775;28;20022;-61
2023/04/14 02:17:01;;;;;;;12.45;8.05;;;;;;;22.69;43.85;100225.31;2081495;28;20030;-60
2023/04/14 02:18:05;;;;;;;10.13;7.60;;;;;;;22.68;43.73;100226.50;2069287;28;20858;-61
2023/04/14 02:19:08;;;;;;;11.68;7.65;;;;;;;22.69;43.74;100233.56;2073967;28;20137;-61
2023/04/14 02:20:15;;;;;;;12.93;7.70;;;;;;;22.68;43.75;100227.28;2073482;28;20098;-61
2023/04/14 02:21:20;;;;;;;13.23;8.20;;;;;;;22.67;43.71;100225.72;2074678;28;20848;-61
2023/04/14 02:22:26;;;;;;;12.20;7.50;;;;;;;22.68;43.78;100227.28;2073421;28;20034;-61
2023/04/14 02:23:33;;;;;;;11.85;7.15;;;;;;;22.68;43.75;100230.03;2066808;28;20039;-61
2023/04/14 02:24:39;;;;;;;12.55;8.02;;;;;;;22.68;43.73;100227.28;2056291;28;20169;-61
2023/04/14 02:25:56;;;;;;;10.52;7.22;;;;;;;22.68;43.62;100227.28;2068366;28;20936;-61
2023/04/14 02:27:30;;;;;;;12.93;7.10;;;;;;;22.67;43.81;100224.94;2077731;28;20081;-61
2023/04/14 02:28:40;;;;;;;13.23;7.93;;;;;;;22.67;43.66;100222.97;2086205;28;20038;-61
2023/04/14 02:29:51;;;;;;;10.38;7.35;;;;;;;22.66;43.69;100220.59;2080191;28;20029;-61
2023/04/14 02:31:00;;;;;;;12.32;6.78;;;;;;;22.68;43.63;100226.50;2081687;28;20042;-61
2023/04/14 02:32:10;;;;;;;12.13;7.90;;;;;;;22.69;43.65;100233.56;2088176;28;20045;-61
2023/04/14 02:33:19;;;;;;;13.88;7.50;;;;;;;22.67;43.57;100224.94;2082082;28;20046;-61
2023/04/14 02:34:27;;;;;;;11.05;7.60;;;;;;;22.68;43.83;100229.25;2082472;28;20053;-61
2023/04/14 02:35:37;;;;;;;14.05;7.20;;;;;;;22.67;43.71;100230.41;2082141;28;20077;-62
2023/04/14 02:36:47;;;;;;;10.65;7.15;;;;;;;22.69;43.66;100239.03;2081832;28;20852;-61
2023/04/14 02:37:52;;;;;;;12.73;7.75;;;;;;;22.67;43.43;100235.88;2090817;28;20038;-61
2023/04/14 02:38:59;;;;;;;10.30;7.13;;;;;;;22.67;43.68;100233.16;2089157;28;20874;-61
2023/04/14 02:40:11;;;;;;;9.98;6.68;;;;;;;22.67;43.60;100233.16;2089365;28;20766;-61
2023/04/14 02:41:22;;;;;;;9.95;7.28;;;;;;;22.67;43.66;100230.41;2089621;28;20045;-62
2023/04/14 02:42:30;;;;;;;13.02;7.85;;;;;;;22.67;43.63;100224.94;2081120;28;20034;-62
2023/04/14 02:43:41;;;;;;;11.32;7.30;;;;;;;22.65;43.66;100224.50;2041933;28;20074;-61
2023/04/14 02:45:06;;;;;;;11.40;7.43;;;;;;;22.67;43.76;100235.88;2067179;28;20130;-61
2023/04/14 02:46:10;;;;;;;14.30;8.20;;;;;;;22.64;43.54;100231.94;2081706;28;20749;-60
2023/04/14 02:47:21;;;;;;;11.02;7.13;;;;;;;22.67;43.67;100235.88;2080816;28;20093;-60
2023/04/14 02:48:28;;;;;;;11.15;6.97;;;;;;;22.67;43.75;100230.41;2071230;28;20023;-61
2023/04/14 02:49:35;;;;;;;11.55;7.72;;;;;;;22.67;43.60;100233.16;2089312;28;20834;-58
2023/04/14 02:50:41;;;;;;;11.15;6.93;;;;;;;22.67;43.79;100241.38;2073163;28;20030;-60
2023/04/14 02:51:52;;;;;;;10.82;7.00;;;;;;;22.68;43.57;100242.94;2078214;28;20030;-61
2023/04/14 02:53:00;;;;;;;9.65;6.90;;;;;;;22.67;43.74;100236.66;2088177;28;20033;-61
2023/04/14 02:54:06;;;;;;;9.40;6.53;;;;;;;22.65;43.87;100240.94;2074577;28;20038;-61
2023/04/14 02:55:22;;;;;;;10.00;6.88;;;;;;;22.67;43.68;100238.63;2075912;28;21139;-61
2023/04/14 02:56:26;;;;;;;10.57;7.00;;;;;;;22.67;43.63;100241.38;2082302;28;20050;-61
2023/04/14 02:57:36;;;;;;;10.35;6.20;;;;;;;22.67;43.73;100250.38;2081444;28;20884;-60
2023/04/14 02:58:38;;;;;;;10.85;6.68;;;;;;;22.68;43.74;100251.16;2081842;28;20140;-60
2023/04/14 02:59:53;;;;;;;11.10;6.85;;;;;;;22.67;43.75;100246.84;2065490;28;20031;-61
2023/04/14 03:00:56;;;;;;;10.05;6.00;;;;;;;22.68;43.83;100248.41;2077811;28;20168;-61
2023/04/14 03:02:01;;;;;;;11.52;6.82;;;;;;;22.67;43.76;100244.91;2089125;28;20033;-61
2023/04/14 03:03:13;;;;;;;9.32;6.68;;;;;;;22.69;43.75;100244.50;2088985;28;20108;-61
2023/04/14 03:04:17;;;;;;;8.93;6.38;;;;;;;22.69;43.85;100247.25;2089350;28;20042;-60
2023/04/14 03:05:23;;;;;;;10.15;6.30;;;;;;;22.67;43.67;100246.84;2087969;28;20868;-60
2023/04/14 03:06:40;;;;;;;9.55;6.25;;;;;;;22.68;43.85;100246.47;2073677;28;20045;-60
2023/04/14 03:07:43;;;;;;;14.15;6.35;;;;;;;22.70;43.74;100250.78;2072189;28;20077;-60
2023/04/14 03:08:47;;;;;;;9.13;6.22;;;;;;;22.69;43.84;100244.50;2073023;28;20895;-60
2023/04/14 03:09:50;;;;;;;8.85;6.38;;;;;;;22.69;43.74;100247.25;2073115;28;20148;-59
2023/04/14 03:10:56;;;;;;;9.40;6.47;;;;;;;22.69;43.83;100255.47;2081233;28;20218;-60
2023/04/14 03:12:02;;;;;;;9.27;6.63;;;;;;;22.68;43.86;100243.72;2082275;28;20892;-60
2023/04/14 03:13:10;;;;;;;9.00;5.97;;;;;;;22.69;43.82;100247.25;2081645;28;20804;-61
2023/04/14 03:14:18;;;;;;;8.10;6.00;;;;;;;22.70;43.77;100256.25;2073747;28;20031;-61
2023/04/14 03:15:20;;;;;;;8.50;5.72;;;;;;;22.67;43.81;100246.84;2073995;28;20042;-61
2023/04/14 03:16:29;;;;;;;10.00;6.25;;;;;;;22.69;43.84;100252.72;2081770;28;20093;-61
2023/04/14 03:17:32;;;;;;;12.25;6.30;;;;;;;22.69;43.77;100255.47;2073367;28;20188;-61
2023/04/14 03:18:37;;;;;;;14.15;6.55;;;;;;;22.69;43.69;100255.47;2061337;28;20108;-61
2023/04/14 03:19:40;;;;;;;10.18;6.07;;;;;;;22.67;43.76;100253.13;2081167;28;20943;-61
2023/04/14 03:20:44;;;;;;;8.70;6.18;;;;;;;22.69;43.77;100255.47;2072816;28;20042;-61
2023/04/14 03:21:48;;;;;;;10.30;6.47;;;;;;;22.68;43.75;100264.88;2073504;28;20050;-62
2023/04/14 03:23:00;;;;;;;9.05;6.47;;;;;;;22.69;43.74;100258.22;2081566;28;20034;-62
2023/04/14 03:24:05;;;;;;;10.43;5.93;;;;;;;22.69;43.68;100260.94;2066183;28;20031;-62
2023/04/14 03:25:11;;;;;;;8.80;6.15;;;;;;;22.67;43.73;100255.84;2066471;28;21035;-62
2023/04/14 03:26:17;;;;;;;9.55;6.78;;;;;;;22.68;43.75;100260.16;2073244;28;20098;-62
2023/04/14 03:27:24;;;;;;;9.40;6.47;;;;;;;22.68;43.83;100256.66;2074409;28;20035;-62
2023/04/14 03:28:33;;;;;;;9.63;6.25;;;;;;;22.68;43.88;100264.88;2082192;28;20037;-61
2023/04/14 03:29:47;;;;;;;8.55;6.10;;;;;;;22.68;43.76;100268.38;2065135;28;20039;-61
2023/04/14 03:30:52;;;;;;;15.48;5.70;;;;;;;22.69;44.08;100263.69;2053010;28;20034;-59
2023/04/14 03:31:59;;;;;;;8.02;5.72;;;;;;;22.70;44.01;100270.78;2065237;28;20043;-60
2023/04/14 03:33:08;;;;;;;9.63;5.57;;;;;;;22.70;43.88;100256.25;2084099;28;20164;-59
2023/04/14 03:34:16;;;;;;;8.93;5.95;;;;;;;22.70;43.80;100256.25;2088916;28;20044;-59
2023/04/14 03:35:23;;;;;;;8.02;5.50;;;;;;;22.70;43.72;100254.34;2074048;28;20038;-59
2023/04/14 03:36:29;;;;;;;8.30;5.38;;;;;;;22.69;43.88;100260.94;2081693;28;20220;-60
2023/04/14 03:37:38;;;;;;;10.45;5.57;;;;;;;22.69;43.98;100255.47;2080064;28;20045;-58
2023/04/14 03:38:43;;;;;;;9.82;5.95;;;;;;;22.71;43.87;100255.13;2073235;28;20049;-60
2023/04/14 03:39:48;;;;;;;9.10;5.50;;;;;;;22.71;43.92;100266.09;2071933;28;20990;-59
2023/04/14 03:40:53;;;;;;;12.23;5.88;;;;;;;22.70;43.91;100259.81;2080493;28;20038;-59
2023/04/14 03:41:58;;;;;;;8.63;5.85;;;;;;;22.67;44.00;100264.06;2072209;28;20889;-59
2023/04/14 03:43:01;;;;;;;10.10;5.40;;;;;;;22.70;43.93;100272.69;2057319;28;20051;-59
2023/04/14 03:44:13;;;;;;;7.68;5.45;;;;;;;22.71;43.88;100275.09;2081114;28;20950;-59
2023/04/14 03:45:20;;;;;;;9.23;5.47;;;;;;;22.71;43.99;100275.09;2088920;28;20034;-59
2023/04/14 03:46:27;;;;;;;10.13;5.78;;;;;;;22.71;43.88;100275.09;2081865;28;20030;-59
2023/04/14 03:47:30;;;;;;;10.13;5.88;;;;;;;22.71;43.87;100272.34;2073352;28;20042;-59
2023/04/14 03:48:35;;;;;;;11.35;5.63;;;;;;;22.71;43.88;100272.34;2072362;28;20102;-59
2023/04/14 03:49:42;;;;;;;11.82;5.88;;;;;;;22.72;44.13;100279.41;2081567;28;20081;-58
2023/04/14 03:50:46;;;;;;;12.02;6.32;;;;;;;22.71;43.90;100269.59;2080447;28;20038;-59
2023/04/14 03:51:53;;;;;;;11.60;5.70;;;;;;;22.72;43.98;100273.13;2073640;28;20152;-60
2023/04/14 03:52:58;;;;;;;13.60;5.47;;;;;;;22.72;43.95;100271.19;2081308;28;20895;-59
2023/04/14 03:54:08;;;;;;;9.13;5.88;;;;;;;22.72;43.86;100276.66;2065146;28;20039;-59
2023/04/14 03:55:13;;;;;;;9.90;5.45;;;;;;;22.72;43.90;100271.19;2059948;28;21219;-58
2023/04/14 03:56:19;;;;;;;6.57;5.13;;;;;;;22.72;44.17;100271.19;2074433;28;20039;-60
2023/04/14 03:57:29;;;;;;;8.55;5.55;;;;;;;22.72;44.17;100273.91;2081487;28;20093;-59
2023/04/14 03:58:36;;;;;;;15.13;5.78;;;;;;;22.73;44.19;100272.78;2073606;28;20176;-58
2023/04/14 03:59:43;;;;;;;9.70;5.93;;;;;;;22.73;44.26;100270.03;2065308;28;20041;-60
2023/04/14 04:00:46;;;;;;;9.23;5.65;;;;;;;22.74;44.24;100273.56;2074200;28;20242;-59
2023/04/14 04:01:52;;;;;;;9.63;5.72;;;;;;;22.74;44.33;100270.84;2071839;28;20039;-59
2023/04/14 04:02:57;;;;;;;13.48;5.75;;;;;;;22.72;44.36;100271.19;2065563;28;20153;-59
2023/04/14 04:04:01;;;;;;;9.75;6.15;;;;;;;22.72;44.42;100259.44;2082484;28;20037;-59
2023/04/14 04:07:00;;;;;;;16.92;11.35;;;;;;;18.63;43.33;100273.34;2116679;27;20910;-69
2023/04/14 04:08:05;;;;;;;18.30;12.32;;;;;;;16.37;48.24;100279.66;2112827;28;20950;-69
2023/04/14 04:09:13;;;;;;;19.73;12.00;;;;;;;14.66;52.54;100269.97;2028253;28;20030;-69
2023/04/14 04:10:20;;;;;;;19.38;12.77;;;;;;;13.35;56.89;100281.81;2078881;28;20849;-69
2023/04/14 04:11:26;;;;;;;18.23;13.30;;;;;;;12.37;60.40;100290.19;2089085;28;20951;-69
2023/04/14 04:12:28;;;;;;;18.95;13.65;;;;;;;11.81;62.78;100283.78;2076736;28;20974;-69
2023/04/14 04:13:33;;;;;;;19.42;13.68;;;;;;;11.30;65.56;100293.41;2094071;28;20123;-68
2023/04/14 04:14:39;;;;;;;23.55;15.05;;;;;;;10.96;66.66;100282.78;2093528;28;20767;-68
2023/04/14 04:15:41;;;;;;;19.85;13.68;;;;;;;10.70;68.24;100290.38;2077794;28;20789;-70
2023/04/14 04:16:48;;;;;;;23.63;14.23;;;;;;;10.55;69.59;100294.00;2061867;28;20827;-69
2023/04/14 04:17:50;;;;;;;23.85;14.38;;;;;;;10.33;71.20;100294.47;2007582;28;20069;-73
2023/04/14 04:18:55;;;;;;;23.33;13.77;;;;;;;10.18;72.44;100291.91;2062529;28;20980;-70
2023/04/14 04:20:06;;;;;;;23.30;14.65;;;;;;;10.03;73.84;100284.78;2080752;28;20050;-72
2023/04/14 04:21:13;;;;;;;23.70;13.95;;;;;;;9.94;74.65;100289.97;2068816;28;20153;-69
2023/04/14 04:22:21;;;;;;;23.63;14.60;;;;;;;9.94;75.46;100281.09;2070793;28;20081;-69
2023/04/14 04:23:32;;;;;;;23.20;14.38;;;;;;;10.01;75.24;100291.53;2094028;28;20802;-69
2023/04/14 04:24:39;;;;;;;23.95;13.85;;;;;;;10.04;75.86;100288.28;2085443;28;20041;-69
2023/04/14 04:25:48;;;;;;;23.35;13.07;;;;;;;10.08;75.88;100292.00;2095846;28;20037;-68
2023/04/14 04:27:09;;;;;;;24.17;14.32;;;;;;;10.02;77.27;100298.50;2090805;28;20057;-68
2023/04/14 04:28:11;;;;;;;28.13;15.82;;;;;;;9.87;77.93;100297.53;2085279;28;20038;-68
2023/04/14 04:29:14;;;;;;;24.02;14.00;;;;;;;9.80;78.58;100302.41;2077518;28;20911;-69
2023/04/14 04:30:18;;;;;;;27.48;15.32;;;;;;;9.75;79.26;100289.81;2093830;28;20099;-68
2023/04/14 04:31:25;;;;;;;21.88;14.35;;;;;;;9.70;79.38;100297.91;2077354;28;20161;-67
2023/04/14 04:32:35;;;;;;;24.40;14.43;;;;;;;9.74;79.90;100303.50;2079504;28;20077;-66
2023/04/14 04:33:40;;;;;;;26.63;14.07;;;;;;;9.79;79.83;100303.50;2084918;28;20042;-69
2023/04/14 04:34:43;;;;;;;29.05;13.80;;;;;;;9.82;80.15;100300.25;2077818;28;20152;-69
2023/04/14 04:35:49;;;;;;;26.10;14.80;;;;;;;9.83;80.04;100298.34;2085907;28;20793;-69
2023/04/14 04:36:51;;;;;;;26.42;15.05;;;;;;;9.82;80.29;100299.44;2085401;28;21352;-70
2023/04/14 04:37:57;;;;;;;27.80;14.80;;;;;;;9.80;80.42;100291.66;2077090;28;20795;-69
2023/04/14 04:38:59;;;;;;;26.80;14.07;;;;;;;9.77;81.03;100292.22;2085496;28;21384;-69
2023/04/14 04:40:08;;;;;;;25.88;14.57;;;;;;;9.63;81.93;100289.38;2069105;28;20053;-69
2023/04/14 04:41:26;;;;;;;25.70;14.40;;;;;;;9.56;82.28;100298.81;2062396;28;21329;-69
2023/04/14 04:42:29;;;;;;;25.73;13.65;;;;;;;9.54;83.19;100299.09;2077082;28;20034;-69
2023/04/14 04:43:31;;;;;;;25.90;14.45;;;;;;;9.50;83.14;100298.84;2053017;28;20165;-68
2023/04/14 04:44:35;;;;;;;29.17;15.32;;;;;;;9.49;83.89;100299.13;2077692;28;20080;-69
2023/04/14 04:45:56;;;;;;;29.33;14.73;;;;;;;9.51;83.80;100300.44;2093020;28;20037;-68
2023/04/14 04:46:59;;;;;;;27.65;14.85;;;;;;;9.54;83.53;100299.09;2068072;28;20381;-69
2023/04/14 04:48:03;;;;;;;29.27;15.25;;;;;;;9.54;84.07;100300.97;2073429;28;20053;-69
2023/04/14 04:49:04;;;;;;;26.00;14.00;;;;;;;9.55;84.24;100299.88;2093627;28;20048;-70
2023/04/14 04:50:14;;;;;;;24.40;13.63;;;;;;;9.59;84.34;100311.69;2102498;28;20215;-69
2023/04/14 04:51:21;;;;;;;30.15;14.48;;;;;;;9.58;84.28;100304.69;2092665;28;21055;-69
2023/04/14 04:52:27;;;;;;;29.55;14.43;;;;;;;9.45;84.94;100312.28;2086033;28;20041;-69
2023/04/14 04:53:31;;;;;;;30.08;14.73;;;;;;;9.43;85.31;100308.28;2086281;28;20249;-69
2023/04/14 04:54:35;;;;;;;31.40;14.52;;;;;;;9.44;85.33;100310.69;2093707;28;21114;-70
2023/04/14 04:55:43;;;;;;;35.28;15.43;;;;;;;9.44;84.98;100308.00;2093088;28;20220;-69
2023/04/14 04:56:46;;;;;;;26.58;13.80;;;;;;;9.47;85.52;100317.38;2093240;28;20025;-69
2023/04/14 04:57:50;;;;;;;29.90;15.15;;;;;;;9.53;85.52;100313.59;2094157;28;20049;-69
2023/04/14 04:59:01;;;;;;;34.55;14.88;;;;;;;9.61;85.66;100314.88;2103906;27;20314;-69
2023/04/14 05:00:08;;;;;;;30.92;14.50;;;;;;;9.64;85.31;100314.31;2102620;28;20041;-69
2023/04/14 05:01:14;;;;;;;31.60;14.30;;;;;;;9.67;85.24;100308.41;2079094;28;20048;-68
2023/04/14 05:02:20;;;;;;;31.40;14.82;;;;;;;9.69;85.26;100315.09;2079862;28;21136;-69
2023/04/14 05:03:24;;;;;;;29.40;14.95;;;;;;;9.66;85.07;100317.53;2086690;28;20249;-69
2023/04/14 05:04:27;;;;;;;32.92;14.93;;;;;;;9.65;85.80;100313.25;2078510;28;21167;-69
2023/04/14 05:05:32;;;;;;;29.13;14.50;;;;;;;9.68;85.28;100313.50;2093923;28;20295;-69
2023/04/14 05:06:38;;;;;;;29.25;15.18;;;;;;;9.74;85.67;100315.09;2074389;28;20169;-70
2023/04/14 05:07:41;;;;;;;31.25;14.32;;;;;;;9.77;85.78;100313.69;2085968;28;20336;-68
2023/04/14 05:08:43;;;;;;;31.08;15.60;;;;;;;9.74;85.79;100311.56;2110775;27;20203;-69